| Date | Time | Temp. (oF) | Dew Point (oF) | Rel. Hum. (%) | Press. (in.) | Wind Dir. | Wind Speed (mph) | Hourly Rainfall (in.) |
|
|---|---|---|---|---|---|---|---|---|---|
| 1 | 08/21 | 00:00 | 79 | 76 | 91 | 29.87 | SSW | 0 | 0.00 |
| 2 | 08/20 | 23:00 | 79 | 75 | 88 | 29.88 | S | 0 | 0.00 |
| 3 | 08/20 | 22:00 | 79 | 75 | 90 | 29.87 | S | 0 | 0.00 |
| 4 | 08/20 | 21:00 | 77 | 74 | 92 | 29.86 | SE | 0 | 0.00 |
| 5 | 08/20 | 20:00 | 79 | 75 | 88 | 29.85 | S | 0 | 0.00 |
| 6 | 08/20 | 19:00 | 80 | 75 | 85 | 29.85 | SE | 0 | 0.00 |
| 7 | 08/20 | 18:00 | 76 | 73 | 92 | 29.88 | NNW | 8 | 0.05 |
| 8 | 08/20 | 17:00 | 76 | 71 | 85 | 29.88 | NW | 0 | -0.01 |
| 9 | 08/20 | 16:00 | 87 | 78 | 77 | 29.86 | S | 0 | 0.00 |
| 10 | 08/20 | 15:00 | 86 | 77 | 77 | 29.89 | ENE | 0 | 0.00 |
| 11 | 08/20 | 14:00 | 83 | 75 | 79 | 29.93 | SE | 0 | 0.00 |
| 12 | 08/20 | 13:00 | 83 | 77 | 83 | 29.94 | SW | 0 | 0.00 |
| 13 | 08/20 | 12:00 | 79 | 75 | 88 | 29.97 | SSW | 0 | 0.00 |
| 14 | 08/20 | 11:00 | 76 | 74 | 95 | 29.96 | SSE | 0 | 0.00 |
| 15 | 08/20 | 10:00 | 74 | 73 | 99 | 29.96 | SSW | 0 | 0.00 |
| 16 | 08/20 | 09:00 | 73 | 72 | 100 | 29.95 | SSW | 0 | 0.00 |
| 17 | 08/20 | 08:00 | 73 | 72 | 100 | 29.95 | ESE | 0 | 0.00 |
| 18 | 08/20 | 07:00 | 71 | 71 | 100 | 29.94 | ESE | 0 | 0.00 |
| 19 | 08/20 | 06:00 | 71 | 71 | 100 | 29.93 | ESE | 0 | 0.00 |
| 20 | 08/20 | 05:00 | 71 | 71 | 100 | 29.92 | ENE | 0 | 0.00 |
| 21 | 08/20 | 04:00 | 71 | 71 | 100 | 29.92 | ENE | 0 | 0.00 |
| 22 | 08/20 | 03:00 | 72 | 72 | 100 | 29.92 | NE | 0 | 0.01 |
| 23 | 08/20 | 02:00 | 72 | 71 | 99 | 29.93 | WSW | 0 | 0.00 |
| 24 | 08/20 | 01:00 | 73 | 72 | 99 | 29.94 | WSW | 0 | 0.00 |